This is the latest recevied weather packets stored in our database for station/object F4FSZ-11. If no packets are shown the sender has not sent any weather packets the latest 10 day(s).
| Time | Temp. | Humidity | Pressure | Rain* | Wind** | Luminosity | Snow |
|---|---|---|---|---|---|---|---|
| 1777925931 | 12.22° C | 100% | 1006.8 hPa | - | - | - | - |
| 1777925030 | 12.78° C | 99% | 1006.9 hPa | - | - | - | - |
| 1777924130 | 12.78° C | 98% | 1006.7 hPa | - | - | - | - |
| 1777923230 | 13.33° C | 96% | 1006.7 hPa | - | - | - | - |
| 1777922330 | 13.89° C | 95% | 1006.8 hPa | - | - | - | - |
| 1777921430 | 14.44° C | 92% | 1006.8 hPa | - | - | - | - |
| 1777920530 | 14.44° C | 90% | 1006.8 hPa | - | - | - | - |
| 1777919630 | 15.56° C | 87% | 1006.7 hPa | - | - | - | - |
| 1777918730 | 15° C | 89% | 1006.7 hPa | - | - | - | - |
| 1777917830 | 15.56° C | 90% | 1006.8 hPa | - | - | - | - |
| 1777916930 | 15.56° C | 89% | 1006.8 hPa | - | - | - | - |
| 1777916030 | 15° C | 91% | 1006.7 hPa | - | - | - | - |
| 1777915130 | 15° C | 89% | 1006.6 hPa | - | - | - | - |
| 1777914230 | 15° C | 87% | 1006.7 hPa | - | - | - | - |
| 1777913330 | 15.56° C | 84% | 1006.8 hPa | - | - | - | - |
| 1777912430 | 15.56° C | 86% | 1007 hPa | - | - | - | - |
| 1777911530 | 15.56° C | 86% | 1007.2 hPa | - | - | - | - |
| 1777910630 | 15.56° C | 86% | 1007 hPa | - | - | - | - |
| 1777909729 | 15.56° C | 88% | 1007.3 hPa | - | - | - | - |
| 1777908829 | 15° C | 88% | 1007.6 hPa | - | - | - | - |
| 1777907929 | 15° C | 86% | 1007.7 hPa | - | - | - | - |
| 1777907029 | 15° C | 88% | 1007.8 hPa | - | - | - | - |
| 1777906129 | 15.56° C | 83% | 1007.7 hPa | - | - | - | - |
| 1777905236 | 16.67° C | 75% | 1007.7 hPa | - | - | - | - |
| 1777904329 | 17.22° C | 72% | 1007.6 hPa | - | - | - | - |
* Rain since midnight (hover to see other rain measurements)
** Current wind speed in m/s (hover to see current wind gust speed)